createdAt,value
2019-05-11T00:01:22.840Z,4.90
2019-05-11T00:04:25.751Z,4.73
2019-05-11T00:07:28.672Z,6.17
2019-05-11T00:10:31.568Z,5.10
2019-05-11T00:13:34.489Z,8.10
2019-05-11T00:16:37.415Z,7.33
2019-05-11T00:19:40.707Z,7.80
2019-05-11T00:22:43.644Z,7.20
2019-05-11T00:25:46.547Z,9.53
2019-05-11T00:28:49.477Z,6.33
2019-05-11T00:31:53.236Z,9.90
2019-05-11T00:34:56.160Z,7.60
2019-05-11T00:37:59.352Z,8.47
2019-05-11T00:41:02.256Z,10.73
2019-05-11T00:44:05.177Z,5.67
2019-05-11T00:47:08.176Z,6.83
2019-05-11T00:50:11.307Z,8.37
2019-05-11T00:53:14.232Z,6.17
2019-05-11T00:56:18.195Z,6.90
2019-05-11T00:59:22.181Z,5.47
2019-05-11T01:02:25.322Z,7.43
2019-05-11T01:05:28.250Z,7.20
2019-05-11T01:08:31.150Z,7.17
2019-05-11T01:11:34.074Z,5.40
2019-05-11T01:14:36.993Z,8.10
2019-05-11T01:17:39.897Z,7.67
2019-05-11T01:20:43.504Z,6.40
2019-05-11T01:23:46.414Z,9.93
2019-05-11T01:26:49.331Z,6.60
2019-05-11T01:29:52.221Z,7.67
2019-05-11T01:32:55.158Z,8.77
2019-05-11T01:35:58.097Z,11.80
2019-05-11T01:39:00.999Z,6.30
2019-05-11T01:42:04.449Z,8.93
2019-05-11T01:45:07.887Z,7.67
2019-05-11T01:48:10.810Z,6.80
2019-05-11T01:51:13.730Z,7.47
2019-05-11T01:54:16.634Z,7.07
2019-05-11T01:57:19.552Z,6.43
2019-05-11T02:00:22.814Z,12.20
2019-05-11T02:03:25.748Z,9.33
2019-05-11T02:06:28.662Z,6.40
2019-05-11T02:09:31.557Z,8.27
2019-05-11T02:12:34.488Z,7.90
2019-05-11T02:15:37.402Z,12.80
2019-05-11T02:18:40.309Z,11.33
2019-05-11T02:21:44.352Z,9.70
2019-05-11T02:24:47.272Z,7.40
2019-05-11T02:27:50.175Z,7.70
2019-05-11T02:30:53.097Z,9.33
2019-05-11T02:33:56.013Z,8.63
2019-05-11T02:36:58.926Z,6.60
2019-05-11T02:40:01.891Z,7.10
2019-05-11T02:43:05.075Z,8.07
2019-05-11T02:46:08.457Z,5.57
2019-05-11T02:49:11.307Z,8.43
2019-05-11T02:52:14.910Z,6.40
2019-05-11T02:55:17.817Z,7.00
2019-05-11T02:58:21.029Z,17.10
2019-05-11T03:01:23.936Z,6.33
2019-05-11T03:04:26.886Z,6.70
2019-05-11T03:07:29.784Z,12.90
2019-05-11T03:10:33.050Z,5.80
2019-05-11T03:13:37.058Z,9.00
2019-05-11T03:16:39.958Z,7.53
2019-05-11T03:19:42.905Z,9.43
2019-05-11T03:22:46.274Z,23.90
2019-05-11T03:25:49.196Z,8.63
2019-05-11T03:28:52.477Z,10.03
2019-05-11T03:31:55.408Z,11.43
2019-05-11T03:34:58.347Z,5.33
2019-05-11T03:38:01.248Z,6.40
2019-05-11T03:41:04.491Z,8.57
2019-05-11T03:44:07.409Z,12.83
2019-05-11T03:47:10.303Z,7.20
2019-05-11T03:50:13.526Z,7.30
2019-05-11T03:53:16.459Z,7.20
2019-05-11T03:56:19.450Z,11.70
2019-05-11T03:59:22.391Z,9.70
2019-05-11T04:02:25.370Z,6.27
2019-05-11T04:05:28.306Z,6.33
2019-05-11T04:08:31.203Z,6.50
2019-05-11T04:11:34.128Z,7.60
2019-05-11T04:14:37.050Z,8.13
2019-05-11T04:17:40.034Z,7.07
2019-05-11T04:20:42.986Z,8.23
2019-05-11T04:23:46.258Z,8.30
2019-05-11T04:26:49.441Z,10.67
2019-05-11T04:29:52.426Z,8.37
2019-05-11T04:32:55.343Z,8.40
2019-05-11T04:35:58.262Z,7.80
2019-05-11T04:39:01.188Z,6.77
2019-05-11T04:42:06.516Z,7.47
2019-05-11T04:45:09.924Z,9.27
2019-05-11T04:48:12.844Z,9.10
2019-05-11T04:51:15.746Z,9.97
2019-05-11T04:54:18.661Z,11.40
2019-05-11T04:57:21.585Z,7.57
2019-05-11T05:00:24.584Z,8.37
2019-05-11T05:03:40.214Z,6.90
2019-05-11T05:06:32.346Z,11.87
2019-05-11T05:09:35.982Z,12.33
2019-05-11T05:12:40.086Z,9.87
2019-05-11T05:15:43.313Z,11.80
2019-05-11T05:18:46.587Z,15.20
2019-05-11T05:21:49.509Z,14.10
2019-05-11T05:24:52.448Z,9.47
2019-05-11T05:27:55.353Z,16.93
2019-05-11T05:30:58.276Z,17.00
2019-05-11T05:34:01.585Z,14.50
2019-05-11T05:37:04.965Z,13.80
2019-05-11T05:40:09.685Z,12.20
2019-05-11T05:43:25.545Z,13.13
2019-05-11T05:46:18.539Z,14.80
2019-05-11T05:49:22.546Z,13.80
2019-05-11T05:52:25.579Z,15.50
2019-05-11T05:55:28.489Z,12.83
2019-05-11T05:58:31.480Z,26.57
2019-05-11T06:01:34.470Z,17.93
2019-05-11T06:04:37.366Z,22.10
2019-05-11T06:07:40.314Z,19.27
2019-05-11T06:10:43.249Z,19.10
2019-05-11T06:13:46.175Z,19.60
2019-05-11T06:16:49.073Z,19.43
2019-05-11T06:19:52.016Z,21.60
2019-05-11T06:22:54.924Z,21.50
2019-05-11T06:25:58.947Z,24.50
2019-05-11T06:29:01.872Z,27.83
2019-05-11T06:32:04.772Z,21.23
2019-05-11T06:35:08.422Z,28.00
2019-05-11T06:38:11.365Z,27.87
2019-05-11T06:41:14.400Z,27.87
2019-05-11T06:44:17.646Z,27.80
2019-05-11T06:47:20.556Z,30.23
2019-05-11T06:50:23.480Z,28.67
2019-05-11T06:53:26.403Z,33.83
2019-05-11T06:56:29.326Z,27.90
2019-05-11T06:59:33.070Z,34.57
2019-05-11T07:02:36.306Z,35.93
2019-05-11T07:05:39.224Z,29.83
2019-05-11T07:08:42.144Z,28.70
2019-05-11T07:11:45.073Z,32.87
2019-05-11T07:14:47.972Z,31.27
2019-05-11T07:17:50.883Z,36.97
2019-05-11T07:20:54.901Z,34.27
2019-05-11T07:23:58.828Z,37.23
2019-05-11T07:27:02.752Z,35.93
2019-05-11T07:30:06.279Z,37.60
2019-05-11T07:33:09.337Z,30.27
2019-05-11T07:36:12.550Z,29.47
2019-05-11T07:39:15.499Z,40.90
2019-05-11T07:42:18.400Z,37.23
2019-05-11T07:45:21.325Z,36.50
2019-05-11T07:48:24.321Z,35.87
2019-05-11T07:51:28.779Z,38.83
2019-05-11T07:54:31.881Z,40.77
2019-05-11T07:57:34.821Z,34.67
2019-05-11T08:00:40.018Z,40.40
2019-05-11T08:03:42.521Z,35.23
2019-05-11T08:06:47.895Z,40.77
2019-05-11T08:09:51.013Z,40.20
2019-05-11T08:12:53.928Z,33.83
2019-05-11T08:15:57.821Z,38.57
2019-05-11T08:19:00.973Z,40.67
2019-05-11T08:22:04.017Z,38.53
2019-05-11T08:25:08.994Z,45.27
2019-05-11T08:28:12.783Z,39.20
2019-05-11T08:31:15.675Z,38.10
2019-05-11T08:34:18.594Z,37.93
2019-05-11T08:37:21.517Z,38.73
2019-05-11T08:40:24.727Z,30.50
2019-05-11T08:43:28.525Z,26.40
2019-05-11T08:46:31.683Z,28.70
2019-05-11T08:49:34.594Z,25.80
2019-05-11T08:52:38.665Z,23.37
2019-05-11T08:55:41.809Z,25.77
2019-05-11T08:58:44.743Z,25.60
2019-05-11T09:01:48.411Z,35.40
2019-05-11T09:04:52.008Z,25.07
2019-05-11T09:07:54.926Z,34.30
2019-05-11T09:10:58.320Z,48.03
2019-05-11T09:14:01.380Z,35.87
2019-05-11T09:17:07.669Z,48.20
2019-05-11T09:20:10.740Z,37.03
2019-05-11T09:23:13.637Z,31.97
2019-05-11T09:26:18.127Z,31.93
2019-05-11T09:29:21.384Z,29.07
2019-05-11T09:32:24.759Z,33.77
2019-05-11T09:35:29.218Z,27.90
2019-05-11T09:38:32.257Z,37.60
2019-05-11T09:41:38.097Z,25.20
2019-05-11T09:44:40.728Z,21.50
2019-05-11T09:47:43.654Z,26.27
2019-05-11T09:50:48.063Z,35.30
2019-05-11T09:53:51.316Z,24.67
2019-05-11T09:56:54.217Z,22.50
2019-05-11T09:59:58.272Z,27.47
2019-05-11T10:03:01.349Z,21.07
2019-05-11T10:06:04.627Z,29.17
2019-05-11T10:09:08.336Z,22.33
2019-05-11T10:12:11.596Z,27.43
2019-05-11T10:15:16.026Z,22.67
2019-05-11T10:18:18.955Z,23.10
2019-05-11T10:21:21.978Z,15.87
2019-05-11T10:24:25.182Z,17.03
2019-05-11T10:27:28.192Z,19.10
2019-05-11T10:30:31.154Z,18.33
2019-05-11T10:33:34.054Z,13.60
2019-05-11T10:36:38.473Z,20.17
2019-05-11T10:39:41.677Z,17.27
2019-05-11T10:42:44.656Z,21.40
2019-05-11T10:45:48.400Z,20.93
2019-05-11T10:48:51.952Z,17.00
2019-05-11T10:51:54.855Z,12.17
2019-05-11T10:54:58.652Z,10.00
2019-05-11T10:58:01.800Z,14.67
2019-05-11T11:01:04.736Z,23.67
2019-05-11T11:04:08.030Z,18.03
2019-05-11T11:07:11.156Z,19.20
2019-05-11T11:10:14.168Z,25.37
2019-05-11T11:13:18.773Z,16.70
2019-05-11T11:16:35.656Z,21.23
2019-05-11T11:19:29.030Z,18.97
2019-05-11T11:22:39.822Z,12.60
2019-05-11T11:25:37.593Z,26.47
2019-05-11T11:28:40.682Z,25.63
2019-05-11T11:31:43.609Z,15.00
2019-05-11T11:34:48.505Z,19.07
2019-05-11T11:37:51.655Z,18.33
2019-05-11T11:40:54.861Z,14.30
2019-05-11T11:43:58.663Z,29.63
2019-05-11T11:47:01.737Z,13.57
2019-05-11T11:50:05.656Z,17.50
2019-05-11T11:53:08.593Z,15.93
2019-05-11T11:56:11.563Z,17.57
2019-05-11T11:59:14.503Z,15.07
2019-05-11T12:02:19.051Z,12.70
2019-05-11T12:05:22.256Z,12.20
2019-05-11T12:08:28.060Z,19.73
2019-05-11T12:11:30.661Z,18.70
2019-05-11T12:14:33.633Z,16.50
2019-05-11T12:17:37.674Z,17.40
2019-05-11T12:20:40.735Z,18.80
2019-05-11T12:23:43.632Z,24.10
2019-05-11T12:26:48.107Z,28.10
2019-05-11T12:29:51.212Z,25.97
2019-05-11T12:32:54.151Z,23.67
2019-05-11T12:35:58.670Z,17.53
2019-05-11T12:39:08.188Z,14.03
2019-05-11T12:42:10.826Z,11.90
2019-05-11T12:45:14.121Z,8.80
2019-05-11T12:48:18.121Z,12.20
2019-05-11T12:51:21.255Z,7.47
2019-05-11T12:54:24.159Z,9.43
2019-05-11T12:57:28.181Z,5.03
2019-05-11T13:00:31.560Z,9.90
2019-05-11T13:03:34.655Z,9.10
2019-05-11T13:06:38.504Z,4.93
2019-05-11T13:09:41.694Z,8.93
2019-05-11T13:12:44.915Z,4.80
2019-05-11T13:15:48.091Z,9.80
2019-05-11T13:18:51.087Z,7.57
2019-05-11T13:21:54.043Z,11.93
2019-05-11T13:24:58.838Z,7.80
2019-05-11T13:28:01.757Z,5.60
2019-05-11T13:31:04.696Z,8.47
2019-05-11T13:34:08.494Z,6.77
2019-05-11T13:37:11.559Z,7.80
2019-05-11T13:40:14.514Z,6.63
2019-05-11T13:43:18.797Z,9.17
2019-05-11T13:46:22.076Z,6.03
2019-05-11T13:49:25.763Z,4.97
2019-05-11T13:52:29.027Z,8.10
2019-05-11T13:55:31.925Z,13.83
2019-05-11T13:58:35.201Z,6.70
2019-05-11T14:01:38.201Z,5.80
2019-05-11T14:04:41.152Z,9.57
2019-05-11T14:07:44.052Z,7.73
2019-05-11T14:10:48.865Z,8.17
2019-05-11T14:13:51.807Z,3.63
2019-05-11T14:16:54.768Z,5.97
2019-05-11T14:19:58.430Z,10.33
2019-05-11T14:23:01.593Z,5.60
2019-05-11T14:26:04.506Z,6.27
2019-05-11T14:29:08.521Z,7.43
2019-05-11T14:32:12.264Z,5.97
2019-05-11T14:35:15.294Z,9.30
2019-05-11T14:38:18.877Z,10.50
2019-05-11T14:41:22.046Z,5.27
2019-05-11T14:44:25.031Z,3.57
2019-05-11T14:47:28.372Z,3.33
2019-05-11T14:50:31.392Z,6.87
2019-05-11T14:53:34.316Z,8.80
2019-05-11T14:56:37.985Z,8.27
2019-05-11T14:59:41.366Z,5.53
2019-05-11T15:02:49.202Z,7.87
2019-05-11T15:05:52.133Z,7.50
2019-05-11T15:08:55.349Z,9.90
2019-05-11T15:11:58.295Z,10.20
2019-05-11T15:15:01.201Z,6.00
2019-05-11T15:18:04.238Z,6.23
2019-05-11T15:21:08.295Z,9.00
2019-05-11T15:24:11.371Z,6.53
2019-05-11T15:27:14.943Z,5.60
2019-05-11T15:30:18.571Z,4.47
2019-05-11T15:33:21.515Z,10.77
2019-05-11T15:36:24.416Z,4.93
2019-05-11T15:39:28.694Z,6.60
2019-05-11T15:42:31.925Z,4.97
2019-05-11T15:45:35.226Z,8.40
2019-05-11T15:48:53.472Z,9.10
2019-05-11T15:51:43.345Z,6.70
2019-05-11T15:54:46.296Z,11.80
2019-05-11T15:57:49.201Z,13.80
2019-05-11T16:00:52.144Z,5.10
2019-05-11T16:03:55.200Z,12.17
2019-05-11T16:07:00.167Z,3.90
2019-05-11T16:10:03.836Z,13.43
2019-05-11T16:13:08.946Z,9.90
2019-05-11T16:16:11.551Z,5.73
2019-05-11T16:19:15.323Z,9.40
2019-05-11T16:22:21.048Z,8.90
2019-05-11T16:25:23.331Z,10.70
2019-05-11T16:28:30.169Z,10.40
2019-05-11T16:31:31.056Z,8.03
2019-05-11T16:34:33.952Z,7.17
2019-05-11T16:37:38.018Z,12.33
2019-05-11T16:40:41.270Z,10.90
2019-05-11T16:43:44.164Z,9.80
2019-05-11T16:46:50.465Z,9.30
2019-05-11T16:49:51.924Z,12.27
2019-05-11T16:52:54.837Z,8.70
2019-05-11T16:55:57.863Z,8.10
2019-05-11T16:59:00.748Z,9.40
2019-05-11T17:02:03.791Z,11.07
2019-05-11T17:05:07.674Z,5.27
2019-05-11T17:08:11.272Z,5.00
2019-05-11T17:11:14.191Z,10.60
2019-05-11T17:14:18.762Z,8.87
2019-05-11T17:17:22.686Z,5.70
2019-05-11T17:20:27.683Z,13.07
2019-05-11T17:23:31.361Z,8.80
2019-05-11T17:26:34.390Z,10.80
2019-05-11T17:29:38.086Z,10.20
2019-05-11T17:32:41.114Z,15.33
2019-05-11T17:35:44.036Z,17.10
2019-05-11T17:38:47.923Z,6.50
2019-05-11T17:41:51.069Z,8.00
2019-05-11T17:44:53.991Z,11.13
2019-05-11T17:47:58.329Z,6.57
2019-05-11T17:51:01.321Z,7.80
2019-05-11T17:54:04.252Z,5.30
2019-05-11T17:57:07.324Z,9.37
2019-05-11T18:00:10.807Z,4.10
2019-05-11T18:03:13.832Z,5.93
2019-05-11T18:06:18.385Z,4.07
2019-05-11T18:09:21.793Z,3.83
2019-05-11T18:12:24.693Z,3.70
2019-05-11T18:15:27.952Z,2.83
2019-05-11T18:18:30.850Z,3.50
2019-05-11T18:21:33.771Z,1.87
2019-05-11T18:24:38.314Z,1.20
2019-05-11T18:27:41.394Z,2.17
2019-05-11T18:30:44.309Z,4.03
2019-05-11T18:33:48.738Z,3.00
2019-05-11T18:36:51.847Z,2.10
2019-05-11T18:39:55.147Z,1.13
2019-05-11T18:42:58.056Z,5.20
2019-05-11T18:46:00.972Z,2.00
2019-05-11T18:49:03.936Z,2.00
2019-05-11T18:52:08.225Z,4.70
2019-05-11T18:55:11.937Z,2.00
2019-05-11T18:58:14.860Z,6.00
2019-05-11T19:01:17.988Z,15.53
2019-05-11T19:04:21.214Z,4.83
2019-05-11T19:07:24.250Z,14.43
2019-05-11T19:10:27.777Z,1.47
2019-05-11T19:13:30.890Z,1.50
2019-05-11T19:16:34.079Z,4.37
2019-05-11T19:19:37.945Z,4.17
2019-05-11T19:22:41.065Z,4.77
2019-05-11T19:25:43.987Z,13.00
2019-05-11T19:28:46.907Z,2.70
2019-05-11T19:31:49.819Z,4.20
2019-05-11T19:34:52.734Z,3.23
2019-05-11T19:37:57.766Z,9.73
2019-05-11T19:41:00.476Z,3.73
2019-05-11T19:44:05.416Z,10.63
2019-05-11T19:47:08.883Z,16.63
2019-05-11T19:50:12.051Z,4.83
2019-05-11T19:53:15.289Z,10.97
2019-05-11T19:56:18.415Z,10.00
2019-05-11T19:59:21.413Z,1.43
2019-05-11T20:02:24.347Z,3.07
2019-05-11T20:05:28.757Z,3.70
2019-05-11T20:08:31.976Z,9.93
2019-05-11T20:11:34.918Z,10.33
2019-05-11T20:14:37.975Z,3.00
2019-05-11T20:17:40.957Z,1.20
2019-05-11T20:20:43.882Z,3.43
2019-05-11T20:23:48.509Z,2.37
2019-05-11T20:26:51.607Z,12.23
2019-05-11T20:29:54.508Z,4.93
2019-05-11T20:32:57.427Z,2.43
2019-05-11T20:36:00.349Z,6.03
2019-05-11T20:39:06.727Z,1.40
2019-05-11T20:42:11.140Z,4.00
2019-05-11T20:45:14.248Z,1.73
2019-05-11T20:48:18.487Z,1.57
2019-05-11T20:51:33.279Z,4.30
2019-05-11T20:54:28.158Z,5.70
2019-05-11T20:57:31.262Z,9.77
2019-05-11T21:00:34.281Z,5.20
2019-05-11T21:03:38.116Z,1.47
2019-05-11T21:06:41.315Z,1.80
2019-05-11T21:09:44.249Z,1.23
2019-05-11T21:12:47.202Z,1.70
2019-05-11T21:15:50.078Z,6.03
2019-05-11T21:18:52.993Z,8.23
2019-05-11T21:21:58.734Z,2.27
2019-05-11T21:25:01.009Z,4.73
2019-05-11T21:28:03.944Z,8.70
2019-05-11T21:31:07.999Z,6.50
2019-05-11T21:34:11.268Z,2.33
2019-05-11T21:37:14.164Z,2.93
2019-05-11T21:40:17.097Z,6.43
2019-05-11T21:43:19.998Z,5.70
2019-05-11T21:46:22.917Z,3.90
2019-05-11T21:49:25.840Z,3.67
2019-05-11T21:52:28.860Z,2.70
2019-05-11T21:55:31.743Z,2.13
2019-05-11T21:58:35.017Z,5.43
2019-05-11T22:01:38.560Z,4.70
2019-05-11T22:04:41.921Z,3.90
2019-05-11T22:07:44.831Z,6.43
2019-05-11T22:10:47.865Z,1.87
2019-05-11T22:13:50.866Z,1.97
2019-05-11T22:16:53.783Z,2.33
2019-05-11T22:19:58.534Z,4.80
2019-05-11T22:23:01.508Z,2.10
2019-05-11T22:26:04.454Z,3.03
2019-05-11T22:29:07.868Z,5.80
2019-05-11T22:32:10.976Z,4.57
2019-05-11T22:35:13.903Z,8.70
2019-05-11T22:38:16.797Z,11.63
2019-05-11T22:41:20.112Z,3.30
2019-05-11T22:44:23.311Z,1.20
2019-05-11T22:47:28.234Z,2.50
2019-05-11T22:50:31.105Z,2.87
2019-05-11T22:53:46.454Z,1.67
2019-05-11T22:56:38.837Z,5.50
2019-05-11T22:59:43.360Z,3.40
2019-05-11T23:02:48.395Z,4.43
2019-05-11T23:05:51.125Z,6.23
2019-05-11T23:08:54.299Z,11.70
2019-05-11T23:12:00.753Z,3.07
2019-05-11T23:15:12.257Z,7.87
2019-05-11T23:18:15.166Z,4.80
2019-05-11T23:21:18.079Z,6.63
2019-05-11T23:24:20.997Z,2.90
2019-05-11T23:27:23.917Z,10.30
2019-05-11T23:30:28.080Z,3.27
2019-05-11T23:33:31.140Z,4.40
2019-05-11T23:36:34.032Z,4.30
2019-05-11T23:39:38.697Z,8.47
2019-05-11T23:42:41.908Z,4.10
2019-05-11T23:45:44.805Z,1.20
2019-05-11T23:48:48.637Z,9.10
2019-05-11T23:51:51.752Z,2.80
2019-05-11T23:54:54.665Z,5.90
2019-05-11T23:57:57.760Z,4.00
